sensor_id;sensor_type;location;lat;lon;timestamp;pressure;altitude;pressure_sealevel;temperature;humidity
10006;BME280;5042;42.626;23.382;2022-10-31T00:01:44;94849.31;;;14.08;71.50
10006;BME280;5042;42.626;23.382;2022-10-31T00:04:10;94848.13;;;14.17;71.08
10006;BME280;5042;42.626;23.382;2022-10-31T00:06:37;94839.38;;;14.16;70.55
10006;BME280;5042;42.626;23.382;2022-10-31T00:09:04;94838.19;;;14.19;70.61
10006;BME280;5042;42.626;23.382;2022-10-31T00:11:31;94845.09;;;14.27;70.45
10006;BME280;5042;42.626;23.382;2022-10-31T00:13:58;94848.53;;;14.27;69.74
10006;BME280;5042;42.626;23.382;2022-10-31T00:16:26;94842.44;;;14.13;69.93
10006;BME280;5042;42.626;23.382;2022-10-31T00:18:56;94840.44;;;14.29;69.93
10006;BME280;5042;42.626;23.382;2022-10-31T00:21:24;94848.13;;;14.24;70.10
10006;BME280;5042;42.626;23.382;2022-10-31T00:23:51;94845.53;;;13.69;73.08
10006;BME280;5042;42.626;23.382;2022-10-31T00:26:19;94841.31;;;12.98;76.85
10006;BME280;5042;42.626;23.382;2022-10-31T00:28:45;94795.47;;;12.08;81.86
10006;BME280;5042;42.626;23.382;2022-10-31T00:31:13;94846.59;;;12.48;83.30
10006;BME280;5042;42.626;23.382;2022-10-31T00:33:40;94834.75;;;12.38;84.01
10006;BME280;5042;42.626;23.382;2022-10-31T00:36:11;94846.03;;;12.53;83.49
10006;BME280;5042;42.626;23.382;2022-10-31T00:38:38;94848.72;;;12.38;85.28
10006;BME280;5042;42.626;23.382;2022-10-31T00:41:05;94842.19;;;12.56;84.80
10006;BME280;5042;42.626;23.382;2022-10-31T00:43:32;94840.69;;;12.46;85.22
10006;BME280;5042;42.626;23.382;2022-10-31T00:45:58;94844.00;;;12.55;85.43
10006;BME280;5042;42.626;23.382;2022-10-31T00:48:25;94843.34;;;12.46;86.35
10006;BME280;5042;42.626;23.382;2022-10-31T00:50:52;94837.34;;;12.59;85.88
10006;BME280;5042;42.626;23.382;2022-10-31T00:53:20;94840.75;;;12.53;86.23
10006;BME280;5042;42.626;23.382;2022-10-31T00:55:47;94839.03;;;12.39;86.99
10006;BME280;5042;42.626;23.382;2022-10-31T00:58:14;94841.38;;;12.12;89.42
10006;BME280;5042;42.626;23.382;2022-10-31T01:00:41;94839.53;;;12.27;89.49
10006;BME280;5042;42.626;23.382;2022-10-31T01:03:08;94847.16;;;12.01;91.85
10006;BME280;5042;42.626;23.382;2022-10-31T01:05:34;94837.13;;;12.11;92.28
10006;BME280;5042;42.626;23.382;2022-10-31T01:08:01;94834.13;;;11.78;93.49
10006;BME280;5042;42.626;23.382;2022-10-31T01:10:29;94850.44;;;11.73;95.26
10006;BME280;5042;42.626;23.382;2022-10-31T01:12:56;94846.34;;;11.85;95.42
10006;BME280;5042;42.626;23.382;2022-10-31T01:15:23;94846.25;;;11.79;95.25
10006;BME280;5042;42.626;23.382;2022-10-31T01:17:50;94847.34;;;11.84;95.53
10006;BME280;5042;42.626;23.382;2022-10-31T01:20:17;94827.44;;;11.75;95.39
10006;BME280;5042;42.626;23.382;2022-10-31T01:22:43;94848.38;;;12.05;94.13
10006;BME280;5042;42.626;23.382;2022-10-31T01:25:11;94849.34;;;12.19;93.90
10006;BME280;5042;42.626;23.382;2022-10-31T01:27:39;94849.66;;;12.30;93.62
10006;BME280;5042;42.626;23.382;2022-10-31T01:30:06;94855.41;;;12.41;93.29
10006;BME280;5042;42.626;23.382;2022-10-31T01:32:33;94853.63;;;12.48;92.98
10006;BME280;5042;42.626;23.382;2022-10-31T01:35:00;94847.63;;;12.54;92.39
10006;BME280;5042;42.626;23.382;2022-10-31T01:37:27;94861.47;;;12.63;91.90
10006;BME280;5042;42.626;23.382;2022-10-31T01:39:53;94852.34;;;12.59;92.22
10006;BME280;5042;42.626;23.382;2022-10-31T01:42:22;94842.56;;;12.52;92.86
10006;BME280;5042;42.626;23.382;2022-10-31T01:44:57;94854.72;;;12.54;92.73
10006;BME280;5042;42.626;23.382;2022-10-31T01:47:31;94860.41;;;12.57;93.03
10006;BME280;5042;42.626;23.382;2022-10-31T01:50:01;94868.19;;;12.22;95.19
10006;BME280;5042;42.626;23.382;2022-10-31T01:52:33;94858.47;;;12.01;97.92
10006;BME280;5042;42.626;23.382;2022-10-31T01:55:06;94866.91;;;11.97;98.76
10006;BME280;5042;42.626;23.382;2022-10-31T01:57:35;94853.13;;;11.95;99.89
10006;BME280;5042;42.626;23.382;2022-10-31T02:00:08;94852.25;;;11.87;99.86
10006;BME280;5042;42.626;23.382;2022-10-31T02:02:35;94860.00;;;11.96;99.48
10006;BME280;5042;42.626;23.382;2022-10-31T02:05:05;94864.38;;;11.88;99.64
10006;BME280;5042;42.626;23.382;2022-10-31T02:07:36;94856.41;;;11.82;100.00
10006;BME280;5042;42.626;23.382;2022-10-31T02:10:05;94772.94;;;11.26;100.00
10006;BME280;5042;42.626;23.382;2022-10-31T02:12:32;94864.84;;;11.77;100.00
10006;BME280;5042;42.626;23.382;2022-10-31T02:15:02;94846.19;;;11.87;100.00
10006;BME280;5042;42.626;23.382;2022-10-31T02:17:31;94859.66;;;11.99;99.80
10006;BME280;5042;42.626;23.382;2022-10-31T02:20:08;94855.78;;;11.80;100.00
10006;BME280;5042;42.626;23.382;2022-10-31T02:22:48;94854.25;;;11.71;100.00
10006;BME280;5042;42.626;23.382;2022-10-31T02:25:36;94865.91;;;11.83;100.00
10006;BME280;5042;42.626;23.382;2022-10-31T02:28:25;94869.47;;;11.75;100.00
10006;BME280;5042;42.626;23.382;2022-10-31T02:31:15;94869.34;;;11.83;100.00
10006;BME280;5042;42.626;23.382;2022-10-31T02:33:51;94876.06;;;11.71;100.00
10006;BME280;5042;42.626;23.382;2022-10-31T02:36:23;94874.72;;;11.75;100.00
10006;BME280;5042;42.626;23.382;2022-10-31T02:39:01;94875.59;;;11.82;100.00
10006;BME280;5042;42.626;23.382;2022-10-31T02:41:36;94871.78;;;12.00;100.00
10006;BME280;5042;42.626;23.382;2022-10-31T02:44:08;94880.88;;;12.19;100.00
10006;BME280;5042;42.626;23.382;2022-10-31T02:46:44;94877.75;;;12.30;100.00
10006;BME280;5042;42.626;23.382;2022-10-31T02:49:17;94881.44;;;12.36;100.00
10006;BME280;5042;42.626;23.382;2022-10-31T02:51:47;94879.38;;;12.52;99.46
10006;BME280;5042;42.626;23.382;2022-10-31T02:54:18;94882.94;;;12.66;98.42
10006;BME280;5042;42.626;23.382;2022-10-31T02:56:46;94882.19;;;12.72;98.77
10006;BME280;5042;42.626;23.382;2022-10-31T02:59:15;94887.94;;;12.83;98.13
10006;BME280;5042;42.626;23.382;2022-10-31T03:02:05;94884.31;;;12.84;98.91
10006;BME280;5042;42.626;23.382;2022-10-31T03:05:07;94889.53;;;12.34;100.00
10006;BME280;5042;42.626;23.382;2022-10-31T03:07:42;94891.31;;;12.12;100.00
10006;BME280;5042;42.626;23.382;2022-10-31T03:10:17;94854.91;;;12.09;100.00
10006;BME280;5042;42.626;23.382;2022-10-31T03:12:51;94876.81;;;12.16;100.00
10006;BME280;5042;42.626;23.382;2022-10-31T03:15:23;94873.59;;;11.99;100.00
10006;BME280;5042;42.626;23.382;2022-10-31T03:17:57;94878.63;;;12.16;100.00
10006;BME280;5042;42.626;23.382;2022-10-31T03:20:30;94872.00;;;12.20;100.00
10006;BME280;5042;42.626;23.382;2022-10-31T03:23:01;94887.09;;;12.33;100.00
10006;BME280;5042;42.626;23.382;2022-10-31T03:25:29;94884.16;;;12.42;100.00
10006;BME280;5042;42.626;23.382;2022-10-31T03:27:59;94886.34;;;12.17;100.00
10006;BME280;5042;42.626;23.382;2022-10-31T03:30:27;94884.66;;;11.95;100.00
10006;BME280;5042;42.626;23.382;2022-10-31T03:32:59;94889.28;;;11.78;100.00
10006;BME280;5042;42.626;23.382;2022-10-31T03:35:28;94896.00;;;11.80;100.00
10006;BME280;5042;42.626;23.382;2022-10-31T03:37:58;94898.81;;;11.64;100.00
10006;BME280;5042;42.626;23.382;2022-10-31T03:40:27;94898.72;;;11.72;100.00
10006;BME280;5042;42.626;23.382;2022-10-31T03:42:58;94904.63;;;11.89;100.00
10006;BME280;5042;42.626;23.382;2022-10-31T03:45:28;94901.78;;;11.91;100.00
10006;BME280;5042;42.626;23.382;2022-10-31T03:47:58;94880.88;;;11.82;100.00
10006;BME280;5042;42.626;23.382;2022-10-31T03:50:28;94903.69;;;11.97;100.00
10006;BME280;5042;42.626;23.382;2022-10-31T03:53:00;94907.50;;;11.94;100.00
10006;BME280;5042;42.626;23.382;2022-10-31T03:55:32;94911.31;;;11.92;100.00
10006;BME280;5042;42.626;23.382;2022-10-31T03:58:04;94910.25;;;12.07;100.00
10006;BME280;5042;42.626;23.382;2022-10-31T04:00:35;94922.03;;;12.12;100.00
10006;BME280;5042;42.626;23.382;2022-10-31T04:03:10;94907.69;;;11.93;100.00
10006;BME280;5042;42.626;23.382;2022-10-31T04:05:38;94907.59;;;11.71;100.00
10006;BME280;5042;42.626;23.382;2022-10-31T04:08:09;94904.78;;;11.58;100.00
10006;BME280;5042;42.626;23.382;2022-10-31T04:10:38;94922.63;;;11.62;100.00
10006;BME280;5042;42.626;23.382;2022-10-31T04:13:08;94929.06;;;11.60;100.00
10006;BME280;5042;42.626;23.382;2022-10-31T04:15:37;94924.56;;;11.54;100.00
10006;BME280;5042;42.626;23.382;2022-10-31T04:18:06;94921.94;;;11.54;100.00
10006;BME280;5042;42.626;23.382;2022-10-31T04:20:35;94913.41;;;11.66;100.00
10006;BME280;5042;42.626;23.382;2022-10-31T04:23:05;94922.53;;;11.71;100.00
10006;BME280;5042;42.626;23.382;2022-10-31T04:25:32;94930.50;;;11.77;100.00
10006;BME280;5042;42.626;23.382;2022-10-31T04:27:58;94928.34;;;11.66;100.00
10006;BME280;5042;42.626;23.382;2022-10-31T04:30:25;94929.88;;;11.75;100.00
10006;BME280;5042;42.626;23.382;2022-10-31T04:32:52;94929.88;;;11.90;100.00
10006;BME280;5042;42.626;23.382;2022-10-31T04:35:20;94920.19;;;12.05;100.00
10006;BME280;5042;42.626;23.382;2022-10-31T04:37:47;94930.25;;;12.23;100.00
10006;BME280;5042;42.626;23.382;2022-10-31T04:40:13;94931.16;;;12.30;100.00
10006;BME280;5042;42.626;23.382;2022-10-31T04:42:40;94926.53;;;12.33;100.00
10006;BME280;5042;42.626;23.382;2022-10-31T04:45:07;94928.28;;;12.47;100.00
10006;BME280;5042;42.626;23.382;2022-10-31T04:47:34;94942.22;;;12.26;100.00
10006;BME280;5042;42.626;23.382;2022-10-31T04:50:01;94933.69;;;12.24;100.00
10006;BME280;5042;42.626;23.382;2022-10-31T04:52:29;94933.66;;;12.17;100.00
10006;BME280;5042;42.626;23.382;2022-10-31T04:54:56;94941.03;;;11.77;100.00
10006;BME280;5042;42.626;23.382;2022-10-31T04:57:23;94940.47;;;11.67;100.00
10006;BME280;5042;42.626;23.382;2022-10-31T04:59:50;94951.16;;;11.65;100.00
10006;BME280;5042;42.626;23.382;2022-10-31T05:02:16;94956.88;;;11.54;100.00
10006;BME280;5042;42.626;23.382;2022-10-31T05:04:43;94949.78;;;11.55;100.00
10006;BME280;5042;42.626;23.382;2022-10-31T05:07:10;94942.63;;;11.78;100.00
10006;BME280;5042;42.626;23.382;2022-10-31T05:09:38;94955.69;;;11.72;100.00
10006;BME280;5042;42.626;23.382;2022-10-31T05:12:05;94938.78;;;11.89;100.00
10006;BME280;5042;42.626;23.382;2022-10-31T05:14:32;94943.81;;;12.05;100.00
10006;BME280;5042;42.626;23.382;2022-10-31T05:16:58;94951.50;;;12.07;100.00
10006;BME280;5042;42.626;23.382;2022-10-31T05:19:25;94956.16;;;12.26;100.00
10006;BME280;5042;42.626;23.382;2022-10-31T05:21:52;94957.78;;;12.42;100.00
10006;BME280;5042;42.626;23.382;2022-10-31T05:24:18;94961.88;;;12.30;100.00
10006;BME280;5042;42.626;23.382;2022-10-31T05:26:49;94955.22;;;12.13;100.00
10006;BME280;5042;42.626;23.382;2022-10-31T05:29:15;94964.91;;;12.12;100.00
10006;BME280;5042;42.626;23.382;2022-10-31T05:31:42;94970.16;;;12.27;100.00
10006;BME280;5042;42.626;23.382;2022-10-31T05:34:09;94966.50;;;12.28;100.00
10006;BME280;5042;42.626;23.382;2022-10-31T05:36:36;94969.13;;;12.28;100.00
10006;BME280;5042;42.626;23.382;2022-10-31T05:39:02;94972.78;;;12.12;100.00
10006;BME280;5042;42.626;23.382;2022-10-31T05:41:29;94981.06;;;12.09;100.00
10006;BME280;5042;42.626;23.382;2022-10-31T05:43:57;94964.94;;;11.97;100.00
10006;BME280;5042;42.626;23.382;2022-10-31T05:46:24;94979.69;;;11.83;100.00
10006;BME280;5042;42.626;23.382;2022-10-31T05:48:51;94985.22;;;11.88;100.00
10006;BME280;5042;42.626;23.382;2022-10-31T05:51:17;94963.41;;;11.88;100.00
10006;BME280;5042;42.626;23.382;2022-10-31T05:53:46;94955.88;;;11.70;100.00
10006;BME280;5042;42.626;23.382;2022-10-31T05:56:13;94988.66;;;12.19;100.00
10006;BME280;5042;42.626;23.382;2022-10-31T05:58:40;94972.38;;;11.94;100.00
10006;BME280;5042;42.626;23.382;2022-10-31T06:01:08;94987.56;;;11.83;100.00
10006;BME280;5042;42.626;23.382;2022-10-31T06:03:35;94997.16;;;11.76;100.00
10006;BME280;5042;42.626;23.382;2022-10-31T06:06:01;94997.69;;;11.72;100.00
10006;BME280;5042;42.626;23.382;2022-10-31T06:08:28;95001.97;;;11.73;100.00
10006;BME280;5042;42.626;23.382;2022-10-31T06:10:55;94923.44;;;11.48;100.00
10006;BME280;5042;42.626;23.382;2022-10-31T06:13:22;95001.25;;;12.08;100.00
10006;BME280;5042;42.626;23.382;2022-10-31T06:15:48;95009.94;;;12.39;100.00
10006;BME280;5042;42.626;23.382;2022-10-31T06:18:17;95013.97;;;12.56;100.00
10006;BME280;5042;42.626;23.382;2022-10-31T06:20:43;95012.47;;;12.68;100.00
10006;BME280;5042;42.626;23.382;2022-10-31T06:23:10;95018.03;;;12.80;100.00
10006;BME280;5042;42.626;23.382;2022-10-31T06:25:37;95023.13;;;12.82;100.00
10006;BME280;5042;42.626;23.382;2022-10-31T06:28:04;95021.13;;;13.05;100.00
10006;BME280;5042;42.626;23.382;2022-10-31T06:30:31;94988.22;;;12.94;100.00
10006;BME280;5042;42.626;23.382;2022-10-31T06:33:02;95030.81;;;13.26;100.00
10006;BME280;5042;42.626;23.382;2022-10-31T06:35:30;95037.03;;;13.40;100.00
10006;BME280;5042;42.626;23.382;2022-10-31T06:37:57;95025.69;;;13.40;100.00
10006;BME280;5042;42.626;23.382;2022-10-31T06:40:24;95029.44;;;13.52;100.00
10006;BME280;5042;42.626;23.382;2022-10-31T06:42:57;95027.88;;;13.57;100.00
10006;BME280;5042;42.626;23.382;2022-10-31T06:45:24;95032.34;;;13.64;100.00
10006;BME280;5042;42.626;23.382;2022-10-31T06:47:52;95029.25;;;13.82;100.00
10006;BME280;5042;42.626;23.382;2022-10-31T06:50:19;95035.03;;;13.98;99.36
10006;BME280;5042;42.626;23.382;2022-10-31T06:52:51;95039.59;;;14.18;96.58
10006;BME280;5042;42.626;23.382;2022-10-31T06:55:18;95034.13;;;14.19;96.64
10006;BME280;5042;42.626;23.382;2022-10-31T06:57:49;95038.59;;;14.19;99.44
10006;BME280;5042;42.626;23.382;2022-10-31T07:00:16;95030.22;;;14.09;97.40
10006;BME280;5042;42.626;23.382;2022-10-31T07:02:43;95036.72;;;14.13;96.54
10006;BME280;5042;42.626;23.382;2022-10-31T07:05:10;95036.31;;;14.16;97.15
10006;BME280;5042;42.626;23.382;2022-10-31T07:07:36;95038.41;;;14.27;96.47
10006;BME280;5042;42.626;23.382;2022-10-31T07:10:05;95039.03;;;14.29;95.21
10006;BME280;5042;42.626;23.382;2022-10-31T07:12:32;95033.59;;;14.37;94.21
10006;BME280;5042;42.626;23.382;2022-10-31T07:14:58;95031.69;;;14.59;93.80
10006;BME280;5042;42.626;23.382;2022-10-31T07:17:25;95023.53;;;14.54;94.00
10006;BME280;5042;42.626;23.382;2022-10-31T07:19:52;95020.44;;;14.44;95.25
10006;BME280;5042;42.626;23.382;2022-10-31T07:22:19;95020.03;;;14.40;94.61
10006;BME280;5042;42.626;23.382;2022-10-31T07:24:45;95016.25;;;14.56;95.27
10006;BME280;5042;42.626;23.382;2022-10-31T07:27:14;95014.44;;;14.63;94.60
10006;BME280;5042;42.626;23.382;2022-10-31T07:29:40;95011.84;;;14.77;93.53
10006;BME280;5042;42.626;23.382;2022-10-31T07:32:07;95015.09;;;14.92;93.72
10006;BME280;5042;42.626;23.382;2022-10-31T07:34:34;95013.72;;;15.03;91.79
10006;BME280;5042;42.626;23.382;2022-10-31T07:37:01;95017.56;;;14.94;91.50
10006;BME280;5042;42.626;23.382;2022-10-31T07:39:27;95014.50;;;14.83;92.49
10006;BME280;5042;42.626;23.382;2022-10-31T07:41:57;95013.09;;;14.94;93.60
10006;BME280;5042;42.626;23.382;2022-10-31T07:44:26;95015.38;;;15.17;93.83
10006;BME280;5042;42.626;23.382;2022-10-31T07:46:52;95013.56;;;15.38;93.92
10006;BME280;5042;42.626;23.382;2022-10-31T07:49:19;95023.72;;;15.74;92.11
10006;BME280;5042;42.626;23.382;2022-10-31T07:51:46;95026.09;;;16.09;89.78
10006;BME280;5042;42.626;23.382;2022-10-31T07:54:12;95023.94;;;16.44;87.86
10006;BME280;5042;42.626;23.382;2022-10-31T07:56:39;95032.03;;;16.56;85.86
10006;BME280;5042;42.626;23.382;2022-10-31T07:59:06;95031.13;;;16.82;85.59
10006;BME280;5042;42.626;23.382;2022-10-31T08:01:34;95033.81;;;17.14;81.99
10006;BME280;5042;42.626;23.382;2022-10-31T08:04:01;95034.38;;;17.48;78.63
10006;BME280;5042;42.626;23.382;2022-10-31T08:06:27;95029.34;;;17.65;78.26
10006;BME280;5042;42.626;23.382;2022-10-31T08:08:54;95038.75;;;18.11;76.00
10006;BME280;5042;42.626;23.382;2022-10-31T08:11:21;95032.03;;;18.45;74.88
10006;BME280;5042;42.626;23.382;2022-10-31T08:13:48;95027.81;;;18.74;71.82
10006;BME280;5042;42.626;23.382;2022-10-31T08:16:14;95033.63;;;19.01;69.26
10006;BME280;5042;42.626;23.382;2022-10-31T08:18:43;95026.03;;;19.17;68.59
10006;BME280;5042;42.626;23.382;2022-10-31T08:21:09;95028.31;;;19.43;67.68
10006;BME280;5042;42.626;23.382;2022-10-31T08:23:36;95036.13;;;19.38;68.13
10006;BME280;5042;42.626;23.382;2022-10-31T08:26:03;95036.41;;;19.48;66.91
10006;BME280;5042;42.626;23.382;2022-10-31T08:28:31;95040.56;;;19.44;65.52
10006;BME280;5042;42.626;23.382;2022-10-31T08:30:58;95043.09;;;19.39;67.43
10006;BME280;5042;42.626;23.382;2022-10-31T08:33:25;95037.78;;;19.39;65.38
10006;BME280;5042;42.626;23.382;2022-10-31T08:35:53;95037.50;;;19.83;64.74
10006;BME280;5042;42.626;23.382;2022-10-31T08:38:20;95030.69;;;20.34;63.24
10006;BME280;5042;42.626;23.382;2022-10-31T08:40:48;95040.78;;;20.84;61.51
10006;BME280;5042;42.626;23.382;2022-10-31T08:43:16;95037.56;;;21.28;60.19
10006;BME280;5042;42.626;23.382;2022-10-31T08:45:46;95037.00;;;21.88;59.00
10006;BME280;5042;42.626;23.382;2022-10-31T08:48:15;95041.41;;;21.99;56.87
10006;BME280;5042;42.626;23.382;2022-10-31T08:50:43;95023.28;;;22.01;55.98
10006;BME280;5042;42.626;23.382;2022-10-31T08:53:13;95037.59;;;22.29;53.88
10006;BME280;5042;42.626;23.382;2022-10-31T08:55:41;95037.09;;;22.32;54.38
10006;BME280;5042;42.626;23.382;2022-10-31T08:58:11;95034.31;;;22.44;53.55
10006;BME280;5042;42.626;23.382;2022-10-31T09:00:38;95018.19;;;22.56;53.06
10006;BME280;5042;42.626;23.382;2022-10-31T09:03:08;95037.44;;;22.58;52.89
10006;BME280;5042;42.626;23.382;2022-10-31T09:05:36;95029.38;;;22.53;54.15
10006;BME280;5042;42.626;23.382;2022-10-31T09:08:04;95033.28;;;22.45;54.77
10006;BME280;5042;42.626;23.382;2022-10-31T09:10:34;95034.59;;;22.26;53.49
10006;BME280;5042;42.626;23.382;2022-10-31T09:13:04;95002.47;;;21.81;52.88
10006;BME280;5042;42.626;23.382;2022-10-31T09:15:32;95040.53;;;21.43;54.54
10006;BME280;5042;42.626;23.382;2022-10-31T09:17:59;95042.53;;;21.36;54.74
10006;BME280;5042;42.626;23.382;2022-10-31T09:20:27;95025.38;;;21.32;55.06
10006;BME280;5042;42.626;23.382;2022-10-31T09:22:58;95034.44;;;21.31;55.49
10006;BME280;5042;42.626;23.382;2022-10-31T09:25:25;94990.81;;;20.91;56.61
10006;BME280;5042;42.626;23.382;2022-10-31T09:27:56;95025.81;;;20.83;60.00
10006;BME280;5042;42.626;23.382;2022-10-31T09:30:24;95022.81;;;20.80;58.33
10006;BME280;5042;42.626;23.382;2022-10-31T09:32:55;95029.44;;;20.77;59.84
10006;BME280;5042;42.626;23.382;2022-10-31T09:35:22;95021.38;;;20.48;60.04
10006;BME280;5042;42.626;23.382;2022-10-31T09:37:53;95022.31;;;20.42;60.45
10006;BME280;5042;42.626;23.382;2022-10-31T09:40:20;95025.56;;;20.32;60.21
10006;BME280;5042;42.626;23.382;2022-10-31T09:42:57;95024.88;;;20.25;61.14
10006;BME280;5042;42.626;23.382;2022-10-31T09:45:29;94976.91;;;19.97;60.26
10006;BME280;5042;42.626;23.382;2022-10-31T09:48:07;94999.19;;;20.19;61.44
10006;BME280;5042;42.626;23.382;2022-10-31T09:50:41;95028.91;;;20.40;59.88
10006;BME280;5042;42.626;23.382;2022-10-31T09:53:13;95023.69;;;20.45;59.78
10006;BME280;5042;42.626;23.382;2022-10-31T09:55:45;95026.34;;;20.45;60.40
10006;BME280;5042;42.626;23.382;2022-10-31T09:58:17;95010.56;;;20.26;60.14
10006;BME280;5042;42.626;23.382;2022-10-31T10:00:46;95011.22;;;20.33;59.69
10006;BME280;5042;42.626;23.382;2022-10-31T10:03:26;95007.50;;;20.34;59.68
10006;BME280;5042;42.626;23.382;2022-10-31T10:05:58;94984.97;;;20.02;59.47
10006;BME280;5042;42.626;23.382;2022-10-31T10:08:31;94992.75;;;20.03;61.23
10006;BME280;5042;42.626;23.382;2022-10-31T10:11:12;94989.72;;;20.11;60.68
10006;BME280;5042;42.626;23.382;2022-10-31T10:13:53;94972.25;;;20.04;59.11
10006;BME280;5042;42.626;23.382;2022-10-31T10:16:31;94995.41;;;20.15;59.52
10006;BME280;5042;42.626;23.382;2022-10-31T10:19:12;94957.59;;;19.78;58.42
10006;BME280;5042;42.626;23.382;2022-10-31T10:21:50;94992.63;;;20.10;60.07
10006;BME280;5042;42.626;23.382;2022-10-31T10:24:30;94992.38;;;20.23;58.89
10006;BME280;5042;42.626;23.382;2022-10-31T10:27:08;94983.19;;;20.31;58.52
10006;BME280;5042;42.626;23.382;2022-10-31T10:29:42;94987.28;;;20.33;58.61
10006;BME280;5042;42.626;23.382;2022-10-31T10:32:23;94936.97;;;20.08;57.71
10006;BME280;5042;42.626;23.382;2022-10-31T10:34:52;94977.38;;;20.46;58.08
10006;BME280;5042;42.626;23.382;2022-10-31T10:37:26;94975.41;;;20.53;57.09
10006;BME280;5042;42.626;23.382;2022-10-31T10:40:06;94973.31;;;20.55;57.78
10006;BME280;5042;42.626;23.382;2022-10-31T10:42:35;94969.97;;;20.60;57.06
10006;BME280;5042;42.626;23.382;2022-10-31T10:45:21;94969.81;;;20.66;56.39
10006;BME280;5042;42.626;23.382;2022-10-31T10:48:10;94953.03;;;20.54;57.67
10006;BME280;5042;42.626;23.382;2022-10-31T10:50:44;94968.00;;;20.55;56.78
10006;BME280;5042;42.626;23.382;2022-10-31T10:53:24;94879.13;;;20.04;56.42
10006;BME280;5042;42.626;23.382;2022-10-31T10:56:06;94961.41;;;20.46;55.78
10006;BME280;5042;42.626;23.382;2022-10-31T10:58:38;94943.03;;;20.32;55.92
10006;BME280;5042;42.626;23.382;2022-10-31T11:01:11;94958.50;;;20.47;55.86
10006;BME280;5042;42.626;23.382;2022-10-31T11:03:40;94931.81;;;20.30;56.19
10006;BME280;5042;42.626;23.382;2022-10-31T11:06:17;94914.19;;;20.41;56.08
10006;BME280;5042;42.626;23.382;2022-10-31T11:08:47;94935.91;;;20.50;55.81
10006;BME280;5042;42.626;23.382;2022-10-31T11:11:25;94947.81;;;20.59;55.49
10006;BME280;5042;42.626;23.382;2022-10-31T11:14:00;94901.72;;;20.30;56.58
10006;BME280;5042;42.626;23.382;2022-10-31T11:16:32;94940.31;;;20.56;57.67
10006;BME280;5042;42.626;23.382;2022-10-31T11:19:08;94934.38;;;20.54;56.88
10006;BME280;5042;42.626;23.382;2022-10-31T11:21:40;94924.69;;;20.48;55.37
10006;BME280;5042;42.626;23.382;2022-10-31T11:24:14;94936.91;;;20.72;54.96
10006;BME280;5042;42.626;23.382;2022-10-31T11:26:44;94924.81;;;20.82;55.18
10006;BME280;5042;42.626;23.382;2022-10-31T11:29:14;94935.16;;;20.95;55.43
10006;BME280;5042;42.626;23.382;2022-10-31T11:31:44;94917.56;;;20.94;54.78
10006;BME280;5042;42.626;23.382;2022-10-31T11:34:25;94930.16;;;20.99;53.62
10006;BME280;5042;42.626;23.382;2022-10-31T11:36:54;94922.09;;;21.10;53.01
10006;BME280;5042;42.626;23.382;2022-10-31T11:39:24;94925.78;;;21.09;53.49
10006;BME280;5042;42.626;23.382;2022-10-31T11:41:52;94918.94;;;21.13;53.11
10006;BME280;5042;42.626;23.382;2022-10-31T11:44:22;94916.41;;;21.07;53.88
10006;BME280;5042;42.626;23.382;2022-10-31T11:46:52;94913.59;;;21.13;53.26
10006;BME280;5042;42.626;23.382;2022-10-31T11:49:26;94911.75;;;21.14;53.58
10006;BME280;5042;42.626;23.382;2022-10-31T11:51:56;94917.25;;;21.07;53.61
10006;BME280;5042;42.626;23.382;2022-10-31T11:54:27;94912.97;;;21.06;54.39
10006;BME280;5042;42.626;23.382;2022-10-31T11:56:55;94909.63;;;20.99;53.77
10006;BME280;5042;42.626;23.382;2022-10-31T11:59:25;94906.81;;;21.06;54.31
10006;BME280;5042;42.626;23.382;2022-10-31T12:01:55;94902.38;;;21.11;54.08
10006;BME280;5042;42.626;23.382;2022-10-31T12:04:34;94895.75;;;20.97;55.20
10006;BME280;5042;42.626;23.382;2022-10-31T12:07:03;94905.59;;;20.96;53.57
10006;BME280;5042;42.626;23.382;2022-10-31T12:09:35;94902.22;;;21.01;54.43
10006;BME280;5042;42.626;23.382;2022-10-31T12:15:26;94898.97;;;21.16;53.84
10006;BME280;5042;42.626;23.382;2022-10-31T12:21:05;94904.66;;;21.20;53.23
10006;BME280;5042;42.626;23.382;2022-10-31T12:23:42;94898.19;;;21.15;53.60
10006;BME280;5042;42.626;23.382;2022-10-31T12:26:18;94895.59;;;21.21;53.20
10006;BME280;5042;42.626;23.382;2022-10-31T12:29:07;94880.41;;;21.04;53.04
10006;BME280;5042;42.626;23.382;2022-10-31T12:31:50;94897.38;;;21.32;53.07
10006;BME280;5042;42.626;23.382;2022-10-31T12:34:45;94902.41;;;21.45;52.70
10006;BME280;5042;42.626;23.382;2022-10-31T12:37:21;94904.66;;;21.53;52.04
10006;BME280;5042;42.626;23.382;2022-10-31T12:40:03;94896.47;;;21.60;52.23
10006;BME280;5042;42.626;23.382;2022-10-31T12:42:45;94897.06;;;21.62;52.74
10006;BME280;5042;42.626;23.382;2022-10-31T12:45:31;94897.44;;;21.54;52.24
10006;BME280;5042;42.626;23.382;2022-10-31T12:48:10;94893.94;;;21.70;52.19
10006;BME280;5042;42.626;23.382;2022-10-31T12:50:58;94893.22;;;21.75;51.71
10006;BME280;5042;42.626;23.382;2022-10-31T12:53:41;94895.66;;;21.98;50.87
10006;BME280;5042;42.626;23.382;2022-10-31T12:56:26;94898.66;;;22.24;50.39
10006;BME280;5042;42.626;23.382;2022-10-31T12:59:00;94898.34;;;22.20;49.45
10006;BME280;5042;42.626;23.382;2022-10-31T13:01:32;94897.66;;;22.30;50.57
10006;BME280;5042;42.626;23.382;2022-10-31T13:04:04;94895.28;;;22.56;49.99
10006;BME280;5042;42.626;23.382;2022-10-31T13:06:36;94898.16;;;22.76;49.49
10006;BME280;5042;42.626;23.382;2022-10-31T13:09:07;94895.63;;;22.92;48.10
10006;BME280;5042;42.626;23.382;2022-10-31T13:11:37;94899.34;;;23.18;48.26
10006;BME280;5042;42.626;23.382;2022-10-31T13:14:07;94902.97;;;23.39;47.22
10006;BME280;5042;42.626;23.382;2022-10-31T13:16:40;94810.78;;;22.82;46.42
10006;BME280;5042;42.626;23.382;2022-10-31T13:19:13;94896.72;;;23.65;46.74
10006;BME280;5042;42.626;23.382;2022-10-31T13:21:53;94906.47;;;23.77;45.56